createdAt,value
2022-11-10T00:00:48.659Z,99153.50
2022-11-10T00:03:15.373Z,99150.78
2022-11-10T00:05:42.153Z,99154.50
2022-11-10T00:08:11.616Z,99152.06
2022-11-10T00:10:57.672Z,99156.50
2022-11-10T00:13:35.113Z,99159.72
2022-11-10T00:16:23.141Z,99166.16
2022-11-10T00:18:50.535Z,99158.00
2022-11-10T00:21:18.280Z,99169.09
2022-11-10T00:23:47.522Z,99155.53
2022-11-10T00:26:17.872Z,99168.59
2022-11-10T00:28:44.877Z,99170.31
2022-11-10T00:31:12.568Z,99175.22
2022-11-10T00:33:42.454Z,99177.72
2022-11-10T00:36:09.339Z,99173.63
2022-11-10T00:38:36.200Z,99178.81
2022-11-10T00:41:03.693Z,99183.47
2022-11-10T00:43:30.923Z,99184.06
2022-11-10T00:45:57.794Z,99184.56
2022-11-10T00:48:24.916Z,99182.44
2022-11-10T00:50:51.756Z,99190.69
2022-11-10T00:53:18.800Z,99191.78
2022-11-10T00:55:45.837Z,99188.84
2022-11-10T00:58:12.943Z,99197.31
2022-11-10T01:00:40.115Z,99203.00
2022-11-10T01:03:07.181Z,99201.72
2022-11-10T01:05:37.832Z,99205.81
2022-11-10T01:08:05.049Z,99214.84
2022-11-10T01:10:32.031Z,99214.94
2022-11-10T01:12:58.842Z,99223.94
2022-11-10T01:15:27.759Z,99229.16
2022-11-10T01:17:56.206Z,99226.22
2022-11-10T01:20:24.009Z,99237.16
2022-11-10T01:22:50.753Z,99250.50
2022-11-10T01:25:17.522Z,99257.03
2022-11-10T01:27:44.268Z,99254.09
2022-11-10T01:30:11.487Z,99257.91
2022-11-10T01:32:38.438Z,99262.25
2022-11-10T01:35:05.938Z,99259.59
2022-11-10T01:37:32.693Z,99264.00
2022-11-10T01:39:59.746Z,99266.69
2022-11-10T01:42:37.730Z,99259.94
2022-11-10T01:45:22.890Z,99268.38
2022-11-10T01:47:56.378Z,99271.63
2022-11-10T01:50:27.857Z,99269.41
2022-11-10T01:52:57.571Z,99266.97
2022-11-10T01:55:25.568Z,99277.03
2022-11-10T01:57:52.743Z,99272.47
2022-11-10T02:00:19.878Z,99281.50
2022-11-10T02:02:54.168Z,99276.66
2022-11-10T02:05:22.778Z,99281.56
2022-11-10T02:07:51.616Z,99275.88
2022-11-10T02:10:20.505Z,99278.38
2022-11-10T02:12:49.492Z,99279.19
2022-11-10T02:15:18.325Z,99289.25
2022-11-10T02:17:48.857Z,99286.53
2022-11-10T02:20:18.634Z,99294.16
2022-11-10T02:22:45.640Z,99295.00
2022-11-10T02:25:19.405Z,99298.81
2022-11-10T02:27:46.173Z,99305.09
2022-11-10T02:30:13.259Z,99303.75
2022-11-10T02:32:39.964Z,99302.72
2022-11-10T02:35:07.858Z,99305.69
2022-11-10T02:37:34.783Z,99312.00
2022-11-10T02:40:01.809Z,99313.72
2022-11-10T02:42:28.525Z,99320.22
2022-11-10T02:44:55.846Z,99324.00
2022-11-10T02:47:23.501Z,99326.44
2022-11-10T02:49:50.206Z,99319.69
2022-11-10T02:52:17.012Z,99323.00
2022-11-10T02:54:43.721Z,99324.94
2022-11-10T02:57:10.444Z,99319.28
2022-11-10T02:59:37.169Z,99324.97
2022-11-10T03:02:03.889Z,99325.56
2022-11-10T03:04:30.594Z,99330.72
2022-11-10T03:06:57.360Z,99340.94
2022-11-10T03:09:24.074Z,99348.78
2022-11-10T03:11:50.742Z,99354.50
2022-11-10T03:14:17.587Z,99350.44
2022-11-10T03:16:44.224Z,99355.28
2022-11-10T03:19:23.185Z,99356.41
2022-11-10T03:21:49.838Z,99357.50
2022-11-10T03:24:16.485Z,99359.22
2022-11-10T03:26:43.289Z,99368.97
2022-11-10T03:29:10.001Z,99375.47
2022-11-10T03:31:36.652Z,99368.13
2022-11-10T03:34:03.433Z,99374.09
2022-11-10T03:36:30.159Z,99377.34
2022-11-10T03:38:57.058Z,99383.03
2022-11-10T03:41:23.802Z,99382.00
2022-11-10T03:43:50.532Z,99388.00
2022-11-10T03:46:18.278Z,99396.16
2022-11-10T03:48:50.222Z,99385.28
2022-11-10T03:51:18.756Z,99389.13
2022-11-10T03:53:45.460Z,99399.69
2022-11-10T03:56:12.248Z,99391.88
2022-11-10T03:58:38.972Z,99395.94
2022-11-10T04:01:05.608Z,99401.09
2022-11-10T04:03:32.356Z,99410.84
2022-11-10T04:06:17.733Z,99413.78
2022-11-10T04:08:59.536Z,99411.63
2022-11-10T04:11:46.932Z,99424.94
2022-11-10T04:14:32.359Z,99433.38
2022-11-10T04:16:59.221Z,99440.97
2022-11-10T04:19:26.118Z,99439.63
2022-11-10T04:21:53.501Z,99448.84
2022-11-10T04:24:20.790Z,99451.28
2022-11-10T04:26:48.594Z,99467.06
2022-11-10T04:29:20.014Z,99462.19
2022-11-10T04:31:46.953Z,99457.88
2022-11-10T04:34:15.362Z,99451.44
2022-11-10T04:36:43.675Z,99463.34
2022-11-10T04:39:10.893Z,99475.00
2022-11-10T04:41:38.096Z,99482.03
2022-11-10T04:44:05.366Z,99483.41
2022-11-10T04:46:34.957Z,99472.56
2022-11-10T04:49:02.111Z,99480.94
2022-11-10T04:51:35.553Z,99484.47
2022-11-10T04:54:03.422Z,99485.81
2022-11-10T04:56:30.377Z,99490.16
2022-11-10T04:58:57.397Z,99487.72
2022-11-10T05:01:27.419Z,99485.81
2022-11-10T05:03:55.346Z,99488.81
2022-11-10T05:06:22.516Z,99505.06
2022-11-10T05:08:49.633Z,99505.84
2022-11-10T05:11:17.293Z,99507.75
2022-11-10T05:13:44.619Z,99505.88
2022-11-10T05:16:12.114Z,99508.03
2022-11-10T05:18:39.353Z,99507.50
2022-11-10T05:21:06.985Z,99508.84
2022-11-10T05:23:39.820Z,99507.50
2022-11-10T05:26:14.494Z,99511.28
2022-11-10T05:28:43.281Z,99501.53
2022-11-10T05:31:10.638Z,99513.97
2022-11-10T05:33:38.263Z,99510.72
2022-11-10T05:36:06.490Z,99520.47
2022-11-10T05:38:33.438Z,99520.22
2022-11-10T05:41:00.434Z,99512.88
2022-11-10T05:43:27.140Z,99511.56
2022-11-10T05:45:53.842Z,99511.81
2022-11-10T05:48:20.561Z,99525.63
2022-11-10T05:50:47.273Z,99526.41
2022-11-10T05:53:14.009Z,99545.34
2022-11-10T05:55:40.842Z,99541.56
2022-11-10T05:58:07.985Z,99544.25
2022-11-10T06:00:35.448Z,99561.03
2022-11-10T06:03:13.660Z,99552.38
2022-11-10T06:05:40.551Z,99563.44
2022-11-10T06:08:07.597Z,99564.25
2022-11-10T06:10:35.176Z,99571.81
2022-11-10T06:13:02.567Z,99568.28
2022-11-10T06:15:30.066Z,99579.06
2022-11-10T06:17:57.419Z,99576.34
2022-11-10T06:20:24.863Z,99583.13
2022-11-10T06:23:18.149Z,99600.44
2022-11-10T06:25:44.827Z,99611.50
2022-11-10T06:28:11.527Z,99607.97
2022-11-10T06:30:38.696Z,99624.44
2022-11-10T06:33:05.420Z,99619.31
2022-11-10T06:35:32.413Z,99621.47
2022-11-10T06:38:06.987Z,99629.56
2022-11-10T06:40:34.071Z,99633.91
2022-11-10T06:43:01.729Z,99652.00
2022-11-10T06:45:28.704Z,99662.00
2022-11-10T06:48:13.638Z,99668.25
2022-11-10T06:50:40.432Z,99682.09
2022-11-10T06:53:07.588Z,99680.97
2022-11-10T06:55:34.300Z,99676.34
2022-11-10T06:58:01.044Z,99685.81
2022-11-10T07:00:28.960Z,99686.91
2022-11-10T07:03:00.411Z,99694.97
2022-11-10T07:05:27.186Z,99678.97
2022-11-10T07:07:53.908Z,99685.50
2022-11-10T07:10:20.581Z,99691.22
2022-11-10T07:12:47.284Z,99696.59
2022-11-10T07:15:13.966Z,99689.25
2022-11-10T07:17:41.486Z,99706.03
2022-11-10T07:20:08.947Z,99706.91
2022-11-10T07:22:35.644Z,99709.31
2022-11-10T07:25:02.313Z,99713.63
2022-11-10T07:27:28.989Z,99722.25
2022-11-10T07:29:55.654Z,99730.94
2022-11-10T07:32:22.341Z,99732.56
2022-11-10T07:34:49.014Z,99738.28
2022-11-10T07:37:15.745Z,99739.91
2022-11-10T07:39:42.451Z,99750.16
2022-11-10T07:42:09.155Z,99755.81
2022-11-10T07:44:35.944Z,99755.31
2022-11-10T07:47:02.931Z,99767.47
2022-11-10T07:49:29.601Z,99762.34
2022-11-10T07:51:56.304Z,99766.94
2022-11-10T07:54:23.026Z,99769.38
2022-11-10T07:56:49.783Z,99765.41
2022-11-10T07:59:16.519Z,99783.31
2022-11-10T08:01:43.238Z,99776.28
2022-11-10T08:04:11.141Z,99785.81
2022-11-10T08:06:37.977Z,99783.97
2022-11-10T08:09:04.700Z,99792.69
2022-11-10T08:11:31.439Z,99784.63
2022-11-10T08:13:58.075Z,99784.66
2022-11-10T08:16:24.913Z,99787.97
2022-11-10T08:18:51.715Z,99788.53
2022-11-10T08:21:18.392Z,99795.63
2022-11-10T08:23:45.089Z,99793.19
2022-11-10T08:26:11.768Z,99784.81
2022-11-10T08:28:38.456Z,99795.09
2022-11-10T08:31:06.224Z,99803.22
2022-11-10T08:33:32.988Z,99795.38
2022-11-10T08:36:01.085Z,99803.75
2022-11-10T08:38:27.985Z,99809.19
2022-11-10T08:40:57.208Z,99810.94
2022-11-10T08:43:24.440Z,99813.91
2022-11-10T08:45:56.886Z,99823.59
2022-11-10T08:48:26.564Z,99821.03
2022-11-10T08:50:56.061Z,99814.66
2022-11-10T08:53:24.504Z,99824.41
2022-11-10T08:55:52.098Z,99828.97
2022-11-10T08:58:21.427Z,99833.59
2022-11-10T09:00:48.199Z,99822.69
2022-11-10T09:03:20.564Z,99827.06
2022-11-10T09:05:52.399Z,99827.03
2022-11-10T09:08:23.469Z,99836.25
2022-11-10T09:10:51.077Z,99835.97
2022-11-10T09:13:26.062Z,99845.41
2022-11-10T09:15:57.245Z,99842.50
2022-11-10T09:18:23.959Z,99840.97
2022-11-10T09:20:50.712Z,99846.09
2022-11-10T09:23:19.017Z,99855.84
2022-11-10T09:25:52.137Z,99856.81
2022-11-10T09:28:20.138Z,99848.75
2022-11-10T09:30:49.103Z,99857.41
2022-11-10T09:33:16.311Z,99860.22
2022-11-10T09:35:43.501Z,99862.56
2022-11-10T09:38:11.776Z,99864.44
2022-11-10T09:40:50.602Z,99871.16
2022-11-10T09:43:37.035Z,99869.41
2022-11-10T09:46:16.232Z,99876.38
2022-11-10T09:48:49.354Z,99878.19
2022-11-10T09:51:23.934Z,99876.59
2022-11-10T09:53:59.482Z,99877.94
2022-11-10T09:56:33.078Z,99872.66
2022-11-10T09:59:01.202Z,99874.22
2022-11-10T10:01:53.049Z,99887.00
2022-11-10T10:04:48.798Z,99886.41
2022-11-10T10:07:26.379Z,99889.84
2022-11-10T10:10:02.253Z,99893.59
2022-11-10T10:13:03.783Z,99893.91
2022-11-10T10:15:44.946Z,99900.84
2022-11-10T10:18:28.600Z,99900.59
2022-11-10T10:21:25.516Z,99902.56
2022-11-10T10:24:09.493Z,99901.31
2022-11-10T10:26:50.568Z,99906.31
2022-11-10T10:29:25.036Z,99896.94
2022-11-10T10:31:53.234Z,99884.22
2022-11-10T10:34:32.024Z,99882.69
2022-11-10T10:36:58.853Z,99892.91
2022-11-10T10:39:41.640Z,99892.69
2022-11-10T10:42:31.175Z,99895.13
2022-11-10T10:45:19.276Z,99890.94
2022-11-10T10:47:47.878Z,99884.06
2022-11-10T10:50:23.524Z,99880.22
2022-11-10T10:53:13.611Z,99885.25
2022-11-10T10:55:53.824Z,99894.66
2022-11-10T10:58:29.648Z,99893.66
2022-11-10T11:01:29.644Z,99907.22
2022-11-10T11:03:58.579Z,99907.44
2022-11-10T11:06:31.252Z,99897.22
2022-11-10T11:09:06.336Z,99893.41
2022-11-10T11:11:39.285Z,99895.09
2022-11-10T11:14:24.778Z,99884.19
2022-11-10T11:17:00.751Z,99884.81
2022-11-10T11:24:03.706Z,99889.78
2022-11-10T11:26:53.644Z,99877.38
2022-11-10T11:29:38.564Z,99875.75
2022-11-10T11:32:18.120Z,99879.34
2022-11-10T11:34:55.870Z,99891.16
2022-11-10T11:37:35.231Z,99889.06
2022-11-10T11:40:21.991Z,99883.56
2022-11-10T11:43:33.269Z,99891.41
2022-11-10T11:46:25.291Z,99898.50
2022-11-10T11:49:01.048Z,99889.53
2022-11-10T11:51:39.286Z,99894.97
2022-11-10T11:54:29.355Z,99886.59
2022-11-10T11:57:09.180Z,99885.16
2022-11-10T11:59:45.987Z,99879.88
2022-11-10T12:02:38.161Z,99881.81
2022-11-10T12:05:32.667Z,99891.63
2022-11-10T12:08:14.174Z,99886.78
2022-11-10T12:10:43.333Z,99881.06
2022-11-10T12:13:36.888Z,99871.69
2022-11-10T12:16:17.183Z,99873.66
2022-11-10T12:18:51.732Z,99873.81
2022-11-10T12:21:23.199Z,99875.41
2022-11-10T12:24:21.022Z,99865.81
2022-11-10T12:27:10.291Z,99871.16
2022-11-10T12:29:52.688Z,99870.25
2022-11-10T12:32:25.498Z,99874.13
2022-11-10T12:35:05.905Z,99871.69
2022-11-10T12:37:41.109Z,99869.34
2022-11-10T12:40:42.079Z,99869.94
2022-11-10T12:43:28.669Z,99868.84
2022-11-10T12:46:00.045Z,99882.56
2022-11-10T12:48:38.440Z,99874.03
2022-11-10T12:51:21.661Z,99885.31
2022-11-10T12:53:49.227Z,99887.88
2022-11-10T12:56:22.149Z,99887.00
2022-11-10T12:58:48.878Z,99883.72
2022-11-10T13:01:18.571Z,99890.44
2022-11-10T13:04:00.189Z,99892.03
2022-11-10T13:06:30.854Z,99890.31
2022-11-10T13:08:59.288Z,99893.38
2022-11-10T13:11:31.427Z,99896.97
2022-11-10T13:14:00.800Z,99898.78
2022-11-10T13:16:42.463Z,99894.81
2022-11-10T13:19:10.968Z,99887.69
2022-11-10T13:21:52.923Z,99895.47
2022-11-10T13:24:21.154Z,99896.09
2022-11-10T13:26:52.514Z,99891.59
2022-11-10T13:29:20.821Z,99895.41
2022-11-10T13:31:53.081Z,99894.28
2022-11-10T13:34:22.726Z,99895.28
2022-11-10T13:36:49.752Z,99900.84
2022-11-10T13:39:19.483Z,99906.41
2022-11-10T13:41:48.997Z,99903.50
2022-11-10T13:44:35.063Z,99909.28
2022-11-10T13:47:17.853Z,99911.00
2022-11-10T13:49:53.658Z,99913.75
2022-11-10T13:52:22.602Z,99912.69
2022-11-10T13:55:04.012Z,99910.50
2022-11-10T13:57:38.758Z,99918.34
2022-11-10T14:00:15.548Z,99911.81
2022-11-10T14:02:47.180Z,99920.41
2022-11-10T14:05:29.396Z,99921.53
2022-11-10T14:08:13.682Z,99919.50
2022-11-10T14:11:12.967Z,99924.25
2022-11-10T14:13:49.557Z,99923.75
2022-11-10T14:16:25.366Z,99928.53
2022-11-10T14:18:55.117Z,99926.41
2022-11-10T14:21:37.135Z,99926.34
2022-11-10T14:24:16.576Z,99931.41
2022-11-10T14:26:50.718Z,99929.38
2022-11-10T14:29:35.587Z,99937.47
2022-11-10T14:32:05.007Z,99934.91
2022-11-10T14:34:36.116Z,99945.84
2022-11-10T14:37:04.372Z,99949.19
2022-11-10T14:39:33.666Z,99940.56
2022-11-10T14:42:05.383Z,99955.94
2022-11-10T14:44:34.774Z,99954.91
2022-11-10T14:47:28.354Z,99961.69
2022-11-10T14:50:15.065Z,99960.84
2022-11-10T14:52:44.353Z,99963.66
2022-11-10T14:55:27.885Z,99965.22
2022-11-10T14:58:05.312Z,99962.78
2022-11-10T15:00:36.464Z,99980.63
2022-11-10T15:03:05.667Z,99972.84
2022-11-10T15:05:33.077Z,99976.66
2022-11-10T15:08:01.583Z,99971.66
2022-11-10T15:10:44.333Z,99979.97
2022-11-10T15:13:13.940Z,99976.53
2022-11-10T15:15:41.572Z,99980.44
2022-11-10T15:18:29.218Z,99983.44
2022-11-10T15:21:17.047Z,99999.59
2022-11-10T15:23:52.302Z,100003.25
2022-11-10T15:26:25.265Z,100011.63
2022-11-10T15:28:52.579Z,100015.22
2022-11-10T15:31:25.432Z,100010.72
2022-11-10T15:33:58.127Z,100005.59
2022-11-10T15:36:24.861Z,100012.66
2022-11-10T15:39:15.648Z,100011.16
2022-11-10T15:41:44.912Z,100013.22
2022-11-10T15:44:21.942Z,100011.66
2022-11-10T15:46:52.710Z,100015.00
2022-11-10T15:49:22.277Z,100025.47
2022-11-10T15:51:50.566Z,100020.59
2022-11-10T15:54:21.329Z,100024.38
2022-11-10T15:56:48.063Z,100021.72
2022-11-10T15:59:15.231Z,100019.41
2022-11-10T16:01:42.273Z,100020.88
2022-11-10T16:04:10.424Z,100024.44
2022-11-10T16:06:38.699Z,100021.16
2022-11-10T16:09:06.635Z,100020.34
2022-11-10T16:11:35.584Z,100021.41
2022-11-10T16:14:03.626Z,100025.28
2022-11-10T16:16:31.316Z,100023.16
2022-11-10T16:18:58.399Z,100026.13
2022-11-10T16:21:26.293Z,100028.56
2022-11-10T16:23:53.252Z,100042.56
2022-11-10T16:26:23.682Z,100046.66
2022-11-10T16:28:50.777Z,100050.50
2022-11-10T16:31:20.143Z,100052.47
2022-11-10T16:33:47.609Z,100054.91
2022-11-10T16:36:26.048Z,100056.00
2022-11-10T16:38:54.034Z,100052.28
2022-11-10T16:41:22.834Z,100050.13
2022-11-10T16:43:49.780Z,100055.03
2022-11-10T16:46:23.211Z,100064.28
2022-11-10T16:48:52.477Z,100060.47
2022-11-10T16:51:30.358Z,100074.06
2022-11-10T16:53:59.395Z,100064.00
2022-11-10T16:56:27.443Z,100069.97
2022-11-10T16:58:55.083Z,100059.94
2022-11-10T17:01:29.098Z,100067.00
2022-11-10T17:03:58.773Z,100069.72
2022-11-10T17:06:27.806Z,100067.25
2022-11-10T17:08:59.154Z,100066.47
2022-11-10T17:11:25.881Z,100063.44
2022-11-10T17:13:52.577Z,100056.13
2022-11-10T17:16:37.016Z,100062.09
2022-11-10T17:19:06.626Z,100060.47
2022-11-10T17:21:36.593Z,100064.75
2022-11-10T17:24:04.847Z,100069.63
2022-11-10T17:26:31.805Z,100076.44
2022-11-10T17:28:58.826Z,100095.41
2022-11-10T17:31:25.660Z,100095.69
2022-11-10T17:33:52.623Z,100095.19
2022-11-10T17:36:22.276Z,100096.84
2022-11-10T17:38:50.387Z,100087.31
2022-11-10T17:41:19.653Z,100087.84
2022-11-10T17:43:47.313Z,100087.53
2022-11-10T17:46:14.935Z,100104.66
2022-11-10T17:48:42.963Z,100103.81
2022-11-10T17:51:18.394Z,100101.38
2022-11-10T17:53:45.377Z,100108.41
2022-11-10T17:56:12.207Z,100101.63
2022-11-10T17:58:38.955Z,100108.69
2022-11-10T18:01:18.025Z,100106.50
2022-11-10T18:03:46.053Z,100116.28
2022-11-10T18:06:14.578Z,100110.59
2022-11-10T18:08:42.069Z,100109.69
2022-11-10T18:11:10.752Z,100118.09
2022-11-10T18:13:38.769Z,100113.72
2022-11-10T18:16:06.517Z,100114.50
2022-11-10T18:18:33.149Z,100126.44
2022-11-10T18:20:59.993Z,100127.00
2022-11-10T18:23:26.752Z,100129.41
2022-11-10T18:25:53.525Z,100119.66
2022-11-10T18:28:20.626Z,100132.91
2022-11-10T18:30:47.291Z,100138.06
2022-11-10T18:33:13.975Z,100142.38
2022-11-10T18:35:41.354Z,100142.63
2022-11-10T18:38:11.071Z,100140.47
2022-11-10T18:40:39.315Z,100139.34
2022-11-10T18:43:07.817Z,100138.53
2022-11-10T18:45:36.249Z,100133.34
2022-11-10T18:48:04.194Z,100133.34
2022-11-10T18:50:31.161Z,100131.25
2022-11-10T18:52:58.121Z,100129.63
2022-11-10T18:55:25.320Z,100132.63
2022-11-10T18:57:52.819Z,100137.75
2022-11-10T19:00:19.998Z,100139.81
2022-11-10T19:02:47.496Z,100144.09
2022-11-10T19:05:14.404Z,100139.97
2022-11-10T19:07:41.146Z,100134.81
2022-11-10T19:10:10.534Z,100130.47
2022-11-10T19:12:37.227Z,100125.56
2022-11-10T19:15:04.547Z,100130.09
2022-11-10T19:17:32.141Z,100140.63
2022-11-10T19:19:59.021Z,100138.22
2022-11-10T19:22:25.686Z,100138.53
2022-11-10T19:25:08.906Z,100143.97
2022-11-10T19:27:36.181Z,100147.75
2022-11-10T19:30:03.198Z,100136.78
2022-11-10T19:32:29.875Z,100142.22
2022-11-10T19:34:56.840Z,100141.97
2022-11-10T19:37:23.534Z,100143.31
2022-11-10T19:39:50.506Z,100141.34
2022-11-10T19:42:17.213Z,100139.69
2022-11-10T19:44:44.013Z,100141.31
2022-11-10T19:47:10.807Z,100146.50
2022-11-10T19:49:38.571Z,100144.84
2022-11-10T19:52:05.259Z,100140.75
2022-11-10T19:54:32.117Z,100134.03
2022-11-10T19:56:58.860Z,100141.81
2022-11-10T19:59:25.536Z,100138.25
2022-11-10T20:01:52.467Z,100134.47
2022-11-10T20:04:19.177Z,100139.28
2022-11-10T20:06:45.903Z,100138.72
2022-11-10T20:09:12.819Z,100141.75
2022-11-10T20:11:39.572Z,100140.34
2022-11-10T20:14:06.889Z,100149.31
2022-11-10T20:16:33.706Z,100158.13
2022-11-10T20:19:00.410Z,100157.84
2022-11-10T20:21:27.472Z,100165.69
2022-11-10T20:23:55.733Z,100172.78
2022-11-10T20:26:23.999Z,100170.03
2022-11-10T20:28:51.115Z,100179.28
2022-11-10T20:31:21.317Z,100182.34
2022-11-10T20:33:48.794Z,100183.38
2022-11-10T20:36:25.813Z,100193.03
2022-11-10T20:38:53.989Z,100197.59
2022-11-10T20:41:23.122Z,100197.56
2022-11-10T20:43:50.472Z,100201.66
2022-11-10T20:46:40.199Z,100194.34
2022-11-10T20:49:06.252Z,100203.69
2022-11-10T20:51:32.957Z,100199.91
2022-11-10T20:54:00.709Z,100207.19
2022-11-10T20:56:29.925Z,100202.28
2022-11-10T20:58:58.156Z,100203.34
2022-11-10T21:01:25.497Z,100206.34
2022-11-10T21:03:52.852Z,100201.72
2022-11-10T21:06:19.747Z,100199.53
2022-11-10T21:08:46.694Z,100196.47
2022-11-10T21:11:33.527Z,100175.50
2022-11-10T21:14:01.337Z,100190.09
2022-11-10T21:16:28.118Z,100189.88
2022-11-10T21:18:55.982Z,100191.59
2022-11-10T21:21:27.611Z,100191.50
2022-11-10T21:23:57.123Z,100187.06
2022-11-10T21:26:24.132Z,100192.16
2022-11-10T21:28:50.905Z,100177.25
2022-11-10T21:31:18.565Z,100177.25
2022-11-10T21:33:45.326Z,100181.19
2022-11-10T21:36:11.960Z,100182.00
2022-11-10T21:38:38.875Z,100173.75
2022-11-10T21:41:05.990Z,100159.78
2022-11-10T21:43:32.775Z,100165.63
2022-11-10T21:46:03.899Z,100174.78
2022-11-10T21:48:30.611Z,100170.13
2022-11-10T21:51:01.861Z,100164.47
2022-11-10T21:53:28.912Z,100163.94
2022-11-10T21:56:00.253Z,100153.47
2022-11-10T21:58:27.630Z,100151.31
2022-11-10T22:01:05.976Z,100159.22
2022-11-10T22:03:34.208Z,100155.72
2022-11-10T22:06:10.081Z,100165.22
2022-11-10T22:08:38.140Z,100166.59
2022-11-10T22:11:24.128Z,100161.19
2022-11-10T22:14:09.541Z,100157.94
2022-11-10T22:17:02.948Z,100155.47
2022-11-10T22:19:30.553Z,100158.72
2022-11-10T22:22:03.238Z,100148.19
2022-11-10T22:24:30.688Z,100154.09
2022-11-10T22:26:59.596Z,100155.47
2022-11-10T22:29:32.244Z,100155.09
2022-11-10T22:32:00.714Z,100156.25
2022-11-10T22:34:27.457Z,100155.56
2022-11-10T22:36:59.207Z,100156.41
2022-11-10T22:39:48.788Z,100160.34
2022-11-10T22:42:34.329Z,100167.44
2022-11-10T22:45:00.990Z,100167.28
2022-11-10T22:47:47.642Z,100173.25
2022-11-10T22:50:14.414Z,100169.56
2022-11-10T22:52:41.059Z,100169.63
2022-11-10T22:55:07.899Z,100162.59
2022-11-10T22:57:34.590Z,100169.06
2022-11-10T23:00:01.246Z,100159.59
2022-11-10T23:02:28.083Z,100150.91
2022-11-10T23:04:54.770Z,100151.81
2022-11-10T23:07:21.479Z,100142.75
2022-11-10T23:09:48.144Z,100148.72
2022-11-10T23:12:14.808Z,100152.22
2022-11-10T23:14:41.788Z,100155.75
2022-11-10T23:17:08.440Z,100156.16
2022-11-10T23:19:35.102Z,100163.94
2022-11-10T23:22:01.817Z,100169.63
2022-11-10T23:24:28.490Z,100170.91
2022-11-10T23:26:55.191Z,100175.16
2022-11-10T23:29:21.863Z,100166.31
2022-11-10T23:31:48.527Z,100177.53
2022-11-10T23:34:15.191Z,100186.38
2022-11-10T23:36:41.984Z,100184.41
2022-11-10T23:39:08.835Z,100185.66
2022-11-10T23:41:35.500Z,100182.03
2022-11-10T23:44:02.174Z,100184.81
2022-11-10T23:46:28.810Z,100188.16
2022-11-10T23:48:55.452Z,100193.25
2022-11-10T23:51:22.130Z,100188.41
2022-11-10T23:53:48.832Z,100189.25
2022-11-10T23:56:15.643Z,100189.25
2022-11-10T23:58:42.314Z,100188.81
